Walnut Creek, Ohio
Current Conditions -  °F | °C
As of 6:53 AM on Wednesday 28 Jan 2015 (Local Time) from KPHD Reporting Station
Overcast Overcast  
Wind Chill: 14°   Ceiling: 600
Heat Index: 14°   Visibility: 8mi
Dew Point: 11°   Wind: 3mph
Humidity: 88%   Direction: 220°SW
Pressure: 30.31"   Gusts: NA
Location:  40.54°N, 81.72°W
Report Text: KPHD 281153Z AUTO 22003KT 8SM OVC006 M10/M12 A3031 RMK AO2 SLP280 I6000 T11001117 11083 21128 51021
Loading
Personal Weather Stations






























Interactive Weather Map New forecast layout! Learn more

10-Day Weather Forecast

Advertisements
Track Severe Weather on mobile